Ana Sayfa
METAR-TAF:

METAR-TAF

Havaalanları :

Vereeniging, Güney Afrika

Enlem: 26-34-29S, Boylam: 027-57-45E, yükseklik: 1483 m

Güncel hava durumu gözlemi

Rapor saat 23:00 UTC de 56 dakika önce yapıldı.
Rüzgar kuzeybatıdan 3 kt
Sıcaklık 8°C
Nem 71%
Basınç 1031 hPa

METAR: FAVV 212300Z AUTO 32003KT //// // ////// 08/03 Q1031

Saat: 01:56 (23:56 UTC)


TAF: eksik

4.000'den fazla havaalanı için hava durumu gözlemleri ve tahminleri (METAR ve TAF raporları).

Kullanılabilir istasyonlar harita üzerinde sarı ve kırmızı noktalarla gösterilir.

İstasyonun adını görmek için fareyi noktanın üzerinde gezdirin.

Sonrasında hava gözlem ve tahminlerini görmek için tıklayın.

Haritayı değiştirmek için: yaklaştırmak için siyah artı işaretli yeşil düğmeye ve uzaklaştırmak için de eksi işaretli düğmeye hızla tıklayın; bitişik haritalar için yeşil okları kullanın.


METAR-TAF: